createdAt,value
2022-12-15T00:05:59.975Z,21.60
2022-12-15T00:16:03.193Z,21.61
2022-12-15T00:26:06.392Z,21.63
2022-12-15T00:36:09.530Z,21.63
2022-12-15T00:46:12.746Z,21.60
2022-12-15T00:56:15.918Z,21.60
2022-12-15T01:06:19.101Z,21.61
2022-12-15T01:16:22.252Z,21.60
2022-12-15T01:26:25.444Z,21.63
2022-12-15T01:36:28.584Z,21.60
2022-12-15T01:46:31.889Z,21.61
2022-12-15T01:56:37.681Z,21.61
2022-12-15T02:06:38.619Z,21.60
2022-12-15T02:16:41.801Z,21.60
2022-12-15T02:26:44.994Z,21.61
2022-12-15T02:36:48.140Z,21.61
2022-12-15T02:46:51.353Z,21.61
2022-12-15T02:56:54.495Z,21.63
2022-12-15T03:07:01.271Z,21.63
2022-12-15T03:17:02.131Z,21.61
2022-12-15T03:27:05.322Z,21.61
2022-12-15T03:37:08.453Z,21.60
2022-12-15T03:47:11.650Z,21.60
2022-12-15T03:57:14.785Z,21.59
2022-12-15T04:07:17.981Z,21.59
2022-12-15T04:17:21.193Z,21.61
2022-12-15T04:27:24.383Z,21.61
2022-12-15T04:37:27.521Z,21.61
2022-12-15T04:47:30.708Z,21.60
2022-12-15T04:57:33.838Z,21.60
2022-12-15T05:07:37.124Z,21.59
2022-12-15T05:17:41.811Z,21.57
2022-12-15T05:27:45.210Z,21.57
2022-12-15T05:37:48.339Z,21.56
2022-12-15T05:47:51.532Z,21.54
2022-12-15T05:57:54.664Z,21.57
2022-12-15T06:07:57.854Z,21.53
2022-12-15T06:18:00.997Z,21.53
2022-12-15T06:28:04.191Z,21.53
2022-12-15T06:38:07.331Z,21.51
2022-12-15T06:48:10.524Z,21.50
2022-12-15T06:58:13.652Z,21.50
2022-12-15T07:08:16.925Z,21.51
2022-12-15T07:18:20.055Z,21.48
2022-12-15T07:28:25.890Z,21.48
2022-12-15T07:38:26.609Z,21.46
2022-12-15T07:48:29.795Z,21.48
2022-12-15T07:58:32.927Z,21.46
2022-12-15T08:08:36.704Z,21.45
2022-12-15T08:18:40.158Z,21.36
2022-12-15T08:28:43.392Z,21.27
2022-12-15T08:38:46.539Z,21.29
2022-12-15T08:48:49.822Z,21.27
2022-12-15T08:58:52.961Z,21.27
2022-12-15T09:08:56.149Z,21.24
2022-12-15T09:18:59.296Z,21.26
2022-12-15T09:29:02.557Z,21.24
2022-12-15T09:39:05.709Z,21.26
2022-12-15T09:49:08.998Z,21.26
2022-12-15T09:59:12.136Z,21.24
2022-12-15T10:09:15.428Z,21.26
2022-12-15T10:19:18.588Z,21.27
2022-12-15T10:29:21.751Z,21.24
2022-12-15T10:39:24.909Z,21.23
2022-12-15T10:49:28.114Z,21.23
2022-12-15T10:59:31.261Z,21.23
2022-12-15T11:09:34.446Z,21.20
2022-12-15T11:19:37.588Z,21.20
2022-12-15T11:29:40.785Z,21.17
2022-12-15T11:39:43.923Z,21.17
2022-12-15T11:49:47.117Z,21.17
2022-12-15T11:59:51.952Z,21.19
2022-12-15T12:09:55.155Z,21.17
2022-12-15T12:19:58.292Z,21.17
2022-12-15T12:30:01.495Z,21.16
2022-12-15T12:40:04.630Z,21.17
2022-12-15T12:50:07.856Z,21.14
2022-12-15T13:00:10.991Z,21.14
2022-12-15T13:10:14.205Z,21.13
2022-12-15T13:20:17.349Z,21.13
2022-12-15T13:30:20.537Z,21.09
2022-12-15T13:40:23.684Z,21.11
2022-12-15T13:50:26.899Z,21.09
2022-12-15T14:00:30.027Z,21.08
2022-12-15T14:10:33.209Z,21.08
2022-12-15T14:20:36.355Z,21.06
2022-12-15T14:30:39.542Z,21.05
2022-12-15T14:40:42.681Z,21.04
2022-12-15T14:50:45.866Z,21.02
2022-12-15T15:00:49.172Z,20.99
2022-12-15T15:10:51.900Z,21.01
2022-12-15T15:20:55.036Z,21.01
2022-12-15T15:30:58.355Z,20.99
2022-12-15T15:41:01.544Z,20.98
2022-12-15T15:51:04.746Z,20.98
2022-12-15T16:01:12.866Z,20.96
2022-12-15T16:11:11.875Z,20.96
2022-12-15T16:21:15.490Z,20.96
2022-12-15T16:31:18.847Z,20.95
2022-12-15T16:41:22.041Z,20.95
2022-12-15T16:51:25.257Z,20.95
2022-12-15T17:01:28.550Z,20.96
2022-12-15T17:11:31.958Z,20.98
2022-12-15T17:21:35.118Z,20.96
2022-12-15T17:31:38.455Z,20.98
2022-12-15T17:42:00.397Z,20.99
2022-12-15T17:51:46.643Z,20.99
2022-12-15T18:01:50.220Z,21.01
2022-12-15T18:11:53.461Z,21.01
2022-12-15T18:21:57.997Z,21.01
2022-12-15T18:32:01.240Z,20.99
2022-12-15T18:42:04.435Z,21.01
2022-12-15T18:52:07.623Z,21.01
2022-12-15T19:02:10.916Z,21.01
2022-12-15T19:12:14.163Z,21.01
2022-12-15T19:22:17.306Z,20.99
2022-12-15T19:32:20.503Z,20.95
2022-12-15T19:42:23.645Z,20.93
2022-12-15T19:52:26.840Z,20.93
2022-12-15T20:02:30.108Z,20.91
2022-12-15T20:12:33.386Z,20.91
2022-12-15T20:22:36.537Z,20.90
2022-12-15T20:32:39.734Z,20.89
2022-12-15T20:42:42.872Z,20.89
2022-12-15T20:52:46.068Z,20.86
2022-12-15T21:02:49.640Z,20.84
2022-12-15T21:23:44.223Z,20.80
2022-12-15T21:33:47.371Z,20.79
2022-12-15T21:43:50.726Z,20.76
2022-12-15T22:04:46.545Z,20.74
2022-12-15T22:14:49.725Z,20.71
2022-12-15T22:35:44.063Z,20.69
2022-12-15T22:45:47.207Z,20.69
2022-12-15T22:55:50.396Z,20.68
2022-12-15T23:05:53.521Z,20.66
2022-12-15T23:15:56.838Z,20.64
2022-12-15T23:26:00.002Z,20.64
2022-12-15T23:36:03.190Z,20.62
2022-12-15T23:46:06.405Z,20.62
2022-12-15T23:56:09.657Z,20.61
